createdAt,value
2024-01-26T00:04:46.990Z,23.40
2024-01-26T00:09:49.348Z,23.30
2024-01-26T00:14:51.408Z,23.30
2024-01-26T00:19:53.449Z,23.30
2024-01-26T00:24:55.577Z,23.30
2024-01-26T00:29:57.593Z,23.30
2024-01-26T00:34:59.702Z,23.30
2024-01-26T00:40:02.001Z,23.40
2024-01-26T00:45:04.808Z,23.50
2024-01-26T00:50:06.982Z,23.60
2024-01-26T00:55:09.583Z,23.60
2024-01-26T01:00:12.107Z,23.60
2024-01-26T01:05:14.251Z,23.50
2024-01-26T01:10:16.779Z,23.70
2024-01-26T01:15:18.878Z,23.80
2024-01-26T01:20:21.699Z,24.00
2024-01-26T01:25:26.105Z,24.00
2024-01-26T01:30:28.828Z,24.30
2024-01-26T01:35:30.934Z,24.20
2024-01-26T01:40:33.034Z,24.20
2024-01-26T01:45:35.055Z,24.20
2024-01-26T01:55:40.089Z,24.30
2024-01-26T02:00:42.813Z,24.40
2024-01-26T02:05:45.002Z,24.50
2024-01-26T02:10:47.069Z,24.50
2024-01-26T02:15:49.057Z,24.50
2024-01-26T02:20:55.487Z,24.60
2024-01-26T02:25:58.040Z,24.60
2024-01-26T02:30:59.998Z,24.70
2024-01-26T02:36:01.997Z,24.80
2024-01-26T02:41:04.421Z,25.20
2024-01-26T02:46:11.018Z,25.00
2024-01-26T02:51:13.176Z,25.00
2024-01-26T02:56:15.133Z,25.00
2024-01-26T03:01:17.257Z,25.10
2024-01-26T03:06:19.502Z,25.30
2024-01-26T03:11:22.249Z,25.30
2024-01-26T03:16:24.359Z,25.30
2024-01-26T03:21:27.409Z,25.50
2024-01-26T03:26:30.013Z,25.40
2024-01-26T03:31:32.068Z,25.50
2024-01-26T03:36:34.162Z,25.40
2024-01-26T03:41:40.067Z,25.40
2024-01-26T03:46:43.193Z,25.50
2024-01-26T03:51:45.295Z,25.70
2024-01-26T03:56:47.403Z,25.70
2024-01-26T04:01:49.426Z,25.60
2024-01-26T04:06:51.537Z,25.80
2024-01-26T04:11:53.619Z,25.70
2024-01-26T04:16:55.635Z,25.90
2024-01-26T04:21:57.685Z,25.90
2024-01-26T04:27:01.722Z,25.90
2024-01-26T04:32:05.183Z,26.00
2024-01-26T04:37:09.016Z,26.10
2024-01-26T04:52:16.352Z,26.30
2024-01-26T04:57:18.445Z,26.60
2024-01-26T05:02:20.489Z,26.60
2024-01-26T05:07:22.630Z,26.70
2024-01-26T05:12:24.766Z,26.70
2024-01-26T05:17:26.784Z,26.70
2024-01-26T05:22:28.787Z,26.80
2024-01-26T05:27:31.709Z,27.00
2024-01-26T05:32:52.934Z,27.00
2024-01-26T05:37:58.309Z,27.00
2024-01-26T05:43:00.478Z,27.10
2024-01-26T05:48:02.615Z,27.10
2024-01-26T05:53:05.160Z,27.30
2024-01-26T05:58:07.264Z,27.30
2024-01-26T06:03:09.396Z,27.30
2024-01-26T06:08:11.525Z,27.40
2024-01-26T06:13:13.504Z,27.60
2024-01-26T06:18:15.554Z,27.80
2024-01-26T06:23:17.840Z,27.70
2024-01-26T06:28:19.842Z,27.70
2024-01-26T06:33:22.135Z,27.80
2024-01-26T06:38:24.217Z,27.80
2024-01-26T06:43:26.285Z,27.70
2024-01-26T06:48:29.053Z,27.70
2024-01-26T06:53:31.457Z,27.80
2024-01-26T06:58:33.835Z,28.00
2024-01-26T07:03:36.302Z,27.80
2024-01-26T07:08:41.568Z,27.90
2024-01-26T07:13:45.867Z,28.00
2024-01-26T07:18:48.127Z,27.90
2024-01-26T07:38:58.483Z,27.90
2024-01-26T07:44:01.302Z,28.10
2024-01-26T07:49:03.493Z,28.00
2024-01-26T07:54:08.724Z,27.90
2024-01-26T07:59:11.804Z,27.70
2024-01-26T08:04:14.042Z,27.60
2024-01-26T08:09:16.411Z,27.40
2024-01-26T08:14:18.558Z,27.30
2024-01-26T08:19:21.094Z,27.10
2024-01-26T08:24:26.317Z,27.00
2024-01-26T08:29:28.759Z,26.80
2024-01-26T08:34:34.082Z,26.50
2024-01-26T08:39:37.294Z,26.40
2024-01-26T08:44:39.383Z,26.30
2024-01-26T08:49:41.661Z,26.10
2024-01-26T08:54:43.723Z,26.10
2024-01-26T08:59:46.453Z,26.00
2024-01-26T09:04:48.682Z,25.80
2024-01-26T09:09:50.750Z,25.80
2024-01-26T09:14:52.812Z,25.80
2024-01-26T09:19:55.055Z,25.70
2024-01-26T09:24:57.224Z,25.60
2024-01-26T09:29:59.967Z,25.50
2024-01-26T09:35:04.188Z,25.40
2024-01-26T09:40:06.990Z,25.40
2024-01-26T09:45:09.989Z,25.40
2024-01-26T09:50:13.301Z,25.30
2024-01-26T09:55:15.941Z,25.30
2024-01-26T10:00:18.368Z,25.20
2024-01-26T10:05:21.022Z,25.20
2024-01-26T10:10:24.212Z,25.20
2024-01-26T10:15:26.322Z,25.20
2024-01-26T10:20:28.972Z,25.10
2024-01-26T10:25:31.378Z,25.10
2024-01-26T10:30:33.454Z,25.00
2024-01-26T10:35:36.795Z,25.00
2024-01-26T10:40:39.526Z,24.90
2024-01-26T10:45:42.895Z,24.80
2024-01-26T10:50:48.598Z,24.70
2024-01-26T10:55:51.042Z,24.60
2024-01-26T11:00:54.351Z,24.40
2024-01-26T11:05:57.130Z,24.30
2024-01-26T11:10:59.470Z,24.40
2024-01-26T11:16:07.043Z,23.80
2024-01-26T11:21:18.769Z,24.10
2024-01-26T11:26:20.816Z,24.10
2024-01-26T11:31:28.974Z,23.90
2024-01-26T11:36:34.109Z,24.10
2024-01-26T11:41:36.655Z,23.50
2024-01-26T11:46:41.185Z,23.70
2024-01-26T11:51:43.534Z,23.60
2024-01-26T11:56:47.597Z,23.60
2024-01-26T12:01:49.829Z,23.50
2024-01-26T12:06:53.425Z,23.50
2024-01-26T12:11:57.022Z,23.20
2024-01-26T12:16:59.061Z,23.20
2024-01-26T12:22:01.109Z,23.10
2024-01-26T12:32:06.369Z,22.90
2024-01-26T12:37:11.335Z,22.90
2024-01-26T12:42:13.466Z,22.90
2024-01-26T12:57:21.762Z,22.40
2024-01-26T13:02:23.796Z,22.50
2024-01-26T13:07:25.906Z,22.50
2024-01-26T13:12:28.052Z,22.60
2024-01-26T13:17:30.237Z,22.70
2024-01-26T13:22:32.333Z,22.70
2024-01-26T13:27:34.461Z,22.70
2024-01-26T13:32:38.800Z,22.80
2024-01-26T13:37:40.959Z,22.90
2024-01-26T13:42:43.437Z,23.10
2024-01-26T13:47:50.790Z,23.20
2024-01-26T13:52:56.553Z,23.30
2024-01-26T13:57:58.593Z,23.30
2024-01-26T14:03:00.861Z,23.30
2024-01-26T14:08:03.018Z,23.40
2024-01-26T14:13:08.566Z,23.10
2024-01-26T14:18:10.917Z,23.20
2024-01-26T14:23:13.236Z,23.00
2024-01-26T14:28:15.274Z,22.20
2024-01-26T14:33:17.375Z,21.90
2024-01-26T14:38:19.566Z,20.80
2024-01-26T14:43:21.559Z,20.30
2024-01-26T14:48:24.647Z,20.40
2024-01-26T14:53:28.689Z,19.60
2024-01-26T14:58:30.770Z,18.20
2024-01-26T15:03:35.370Z,17.70
2024-01-26T15:08:37.552Z,17.60
2024-01-26T15:13:40.649Z,17.10
2024-01-26T15:18:42.896Z,16.70
2024-01-26T15:23:45.129Z,16.30
2024-01-26T15:28:47.974Z,16.50
2024-01-26T15:33:50.221Z,16.10
2024-01-26T15:38:52.502Z,15.40
2024-01-26T15:43:56.991Z,15.40
2024-01-26T15:54:04.287Z,15.50
2024-01-26T15:59:06.444Z,12.50
2024-01-26T16:04:08.514Z,10.30
2024-01-26T16:09:10.748Z,10.20
2024-01-26T16:14:14.313Z,10.20
2024-01-26T16:19:16.513Z,10.40
2024-01-26T16:24:18.702Z,10.70
2024-01-26T16:29:20.832Z,10.90
2024-01-26T16:34:23.042Z,11.00
2024-01-26T16:39:29.865Z,11.10
2024-01-26T16:49:35.305Z,11.30
2024-01-26T16:59:39.982Z,11.40
2024-01-26T17:09:44.421Z,11.70
2024-01-26T17:14:46.509Z,11.70
2024-01-26T17:19:52.162Z,11.80
2024-01-26T17:24:54.887Z,12.00
2024-01-26T17:29:57.922Z,12.00
2024-01-26T17:35:00.148Z,12.30
2024-01-26T17:40:03.617Z,12.20
2024-01-26T17:45:08.106Z,12.20
2024-01-26T17:50:10.692Z,12.30
2024-01-26T17:55:13.060Z,12.40
2024-01-26T18:00:18.124Z,12.50
2024-01-26T18:05:22.226Z,13.40
2024-01-26T18:10:24.347Z,13.60
2024-01-26T18:15:26.550Z,13.70
2024-01-26T18:20:28.575Z,13.60
2024-01-26T18:25:30.629Z,13.50
2024-01-26T18:30:32.654Z,13.40
2024-01-26T18:35:35.615Z,13.80
2024-01-26T18:40:37.612Z,13.90
2024-01-26T18:45:39.585Z,14.10
2024-01-26T18:50:41.751Z,14.30
2024-01-26T18:55:44.896Z,14.50
2024-01-26T19:00:47.438Z,14.90
2024-01-26T19:05:49.729Z,15.00
2024-01-26T19:10:51.801Z,15.10
2024-01-26T19:15:53.868Z,15.20
2024-01-26T19:20:56.379Z,15.40
2024-01-26T19:25:58.518Z,15.40
2024-01-26T19:31:00.663Z,15.50
2024-01-26T19:36:02.878Z,15.50
2024-01-26T19:41:05.158Z,15.50
2024-01-26T19:46:07.541Z,16.50
2024-01-26T19:51:09.667Z,15.50
2024-01-26T19:56:13.603Z,15.60
2024-01-26T20:01:18.115Z,15.70
2024-01-26T20:06:20.299Z,15.90
2024-01-26T20:11:22.348Z,15.90
2024-01-26T20:16:24.461Z,16.00
2024-01-26T20:21:26.509Z,15.90
2024-01-26T20:26:28.769Z,15.90
2024-01-26T20:31:31.342Z,16.10
2024-01-26T20:36:38.456Z,16.10
2024-01-26T20:41:41.080Z,16.30
2024-01-26T20:46:46.583Z,16.40
2024-01-26T20:51:51.366Z,16.30
2024-01-26T20:56:53.843Z,16.30
2024-01-26T21:01:56.150Z,16.70
2024-01-26T21:06:58.299Z,16.20
2024-01-26T21:12:01.284Z,16.70
2024-01-26T21:17:05.778Z,16.50
2024-01-26T21:22:08.325Z,16.70
2024-01-26T21:27:10.412Z,16.80
2024-01-26T21:32:16.318Z,16.90
2024-01-26T21:37:18.632Z,17.10
2024-01-26T21:42:23.464Z,17.20
2024-01-26T21:47:27.445Z,17.10
2024-01-26T21:52:30.516Z,17.30
2024-01-26T21:57:32.876Z,17.60
2024-01-26T22:02:35.217Z,17.70
2024-01-26T22:07:38.059Z,17.80
2024-01-26T22:12:40.680Z,17.40
2024-01-26T22:17:42.942Z,17.50
2024-01-26T22:22:45.140Z,17.40
2024-01-26T22:27:47.167Z,17.70
2024-01-26T22:32:49.388Z,17.50
2024-01-26T22:37:51.499Z,17.40
2024-01-26T22:42:53.789Z,17.70
2024-01-26T22:47:55.979Z,17.90
2024-01-26T22:52:58.343Z,17.50
2024-01-26T22:58:00.424Z,17.60
2024-01-26T23:03:02.691Z,17.80
2024-01-26T23:08:05.573Z,18.10
2024-01-26T23:13:08.447Z,20.60
2024-01-26T23:18:10.654Z,18.50
2024-01-26T23:23:12.742Z,18.10
2024-01-26T23:28:15.400Z,18.40
2024-01-26T23:33:18.683Z,18.30
2024-01-26T23:38:20.968Z,18.40
2024-01-26T23:43:23.956Z,18.50
2024-01-26T23:48:26.161Z,18.40
2024-01-26T23:53:28.372Z,18.30
2024-01-26T23:58:30.338Z,18.00
